logo
Search for airport 
image banner adimage banner adimage banner ad
image banner ad

FASTER - Sterkfontein

Located in , South Africa

ICAO - , IATA -

Data provided by Airmate  

General information

Coordinates: S26°2'45" E27°42'7"
Elevation is 2650 feet MSL.
 
View others Airports in Limpopo

Operational data

Special qualification required
Current time UTC:
Current local time:
Weather at : FALA - Lanseria International ( 25 km )
TAF: TAF FALA 171600Z 1718/1818 VRB03KT CAVOK TX19/1813Z TN04/1805Z BECMG 1808/1810 30010KT BECMG 1815/1817 VRB03KT
View NOTAMs / SUP AIP / TFR affecting this airport [VIEW]
Communications frequencies: [VIEW]

Runways:

RWY identifierQFULength (ft)Width (ft)SurfaceLDA (ft)
16138°262549SAND
34318°262549SAND
1295°262549SAND
30275°262549SAND

Airport contact information

Address: South Africa

Satellite view of FASTER